Time;durP1;ratioP1;P1;durP2;ratioP2;P2;SDS_P1;SDS_P2;PMS_P1;PMS_P2;Temp;Humidity;BMP_temperature;BMP_pressure;BME280_temperature;BME280_humidity;BME280_pressure;Samples;Min_cycle;Max_cycle;Signal;HPM_P1;HPM_P2
2022/03/29 00:01:59;;;;;;;24.80;16.27;;;7.50;99.90;;;;;;5032892;28;20096;-73
2022/03/29 00:04:25;;;;;;;21.83;16.50;;;7.50;99.90;;;;;;5032531;28;20471;-73
2022/03/29 00:06:52;;;;;;;23.75;17.73;;;7.50;99.90;;;;;;5032440;28;20303;-73
2022/03/29 00:09:18;;;;;;;25.67;17.67;;;7.50;99.90;;;;;;5031817;28;20524;-73
2022/03/29 00:11:44;;;;;;;23.90;18.83;;;7.50;99.90;;;;;;5032406;28;20276;-73
2022/03/29 00:14:12;;;;;;;25.57;16.87;;;7.50;99.90;;;;;;5032731;28;20045;-74
2022/03/29 00:16:39;;;;;;;23.87;17.63;;;7.50;99.90;;;;;;5031021;28;20292;-73
2022/03/29 00:19:05;;;;;;;26.90;17.43;;;7.50;99.90;;;;;;5032537;28;20311;-73
2022/03/29 00:21:31;;;;;;;23.87;17.37;;;7.50;99.90;;;;;;5032618;28;20772;-73
2022/03/29 00:23:56;;;;;;;23.67;18.25;;;7.50;99.90;;;;;;5031682;28;20292;-74
2022/03/29 00:26:22;;;;;;;23.63;17.97;;;7.40;99.90;;;;;;5031923;28;20044;-73
2022/03/29 00:28:48;;;;;;;24.07;17.17;;;7.40;99.90;;;;;;5035039;28;20489;-73
2022/03/29 00:31:16;;;;;;;25.10;18.60;;;7.30;99.90;;;;;;5036642;28;20045;-74
2022/03/29 00:33:43;;;;;;;26.02;18.40;;;7.40;99.90;;;;;;5036090;28;20056;-73
2022/03/29 00:36:08;;;;;;;25.40;18.97;;;7.40;99.90;;;;;;5036298;28;20052;-73
2022/03/29 00:38:34;;;;;;;23.70;18.50;;;7.40;99.90;;;;;;5035932;28;20379;-73
2022/03/29 00:41:01;;;;;;;26.83;18.27;;;7.40;99.90;;;;;;5036214;28;20548;-73
2022/03/29 00:43:27;;;;;;;21.08;17.02;;;7.30;99.90;;;;;;5035935;28;20053;-73
2022/03/29 00:45:52;;;;;;;27.20;17.77;;;7.30;99.90;;;;;;5036175;28;20111;-73
2022/03/29 00:48:18;;;;;;;22.07;17.93;;;7.30;99.90;;;;;;5018340;28;20100;-73
2022/03/29 00:50:45;;;;;;;23.33;18.67;;;7.40;99.90;;;;;;5035806;28;20132;-74
2022/03/29 00:53:11;;;;;;;25.38;16.50;;;7.40;99.90;;;;;;5036011;28;20045;-73
2022/03/29 00:55:38;;;;;;;23.95;16.98;;;7.40;99.90;;;;;;5035695;28;20045;-74
2022/03/29 00:58:07;;;;;;;22.35;17.85;;;7.40;99.90;;;;;;5035854;28;20048;-73
2022/03/29 01:00:35;;;;;;;23.35;18.60;;;7.40;99.90;;;;;;5035502;28;20049;-73
2022/03/29 01:03:03;;;;;;;23.02;17.45;;;7.40;99.90;;;;;;5034811;28;20115;-73
2022/03/29 01:05:32;;;;;;;25.13;17.70;;;7.40;99.90;;;;;;5035685;28;20057;-73
2022/03/29 01:08:00;;;;;;;27.10;18.25;;;7.40;99.90;;;;;;5034504;28;20284;-73
2022/03/29 01:10:26;;;;;;;26.08;18.20;;;7.50;99.90;;;;;;5035678;28;20079;-73
2022/03/29 01:12:53;;;;;;;27.90;18.63;;;7.60;99.90;;;;;;5035357;28;20046;-73
2022/03/29 01:15:20;;;;;;;28.67;16.57;;;7.50;99.90;;;;;;5035295;28;20300;-73
2022/03/29 01:17:46;;;;;;;26.90;17.13;;;7.50;99.90;;;;;;5033926;28;20303;-73
2022/03/29 01:20:16;;;;;;;23.77;16.75;;;7.60;99.90;;;;;;5035702;28;20049;-73
2022/03/29 01:22:47;;;;;;;26.03;16.77;;;7.60;99.90;;;;;;5035225;28;20064;-73
2022/03/29 01:25:22;;;;;;;27.57;17.33;;;7.60;99.90;;;;;;5034506;28;20288;-73
2022/03/29 01:27:49;;;;;;;24.05;17.00;;;7.60;99.90;;;;;;5033927;28;20276;-73
2022/03/29 01:30:16;;;;;;;21.37;16.57;;;7.60;99.90;;;;;;5034515;28;20394;-73
2022/03/29 01:32:47;;;;;;;27.53;17.57;;;7.60;99.90;;;;;;5034873;28;20317;-73
2022/03/29 01:35:15;;;;;;;25.40;16.40;;;7.60;99.90;;;;;;5035221;28;20687;-73
2022/03/29 01:37:41;;;;;;;24.43;16.37;;;7.70;99.90;;;;;;5034224;28;20296;-73
2022/03/29 01:40:12;;;;;;;23.17;16.13;;;7.70;99.90;;;;;;5033637;28;20299;-73
2022/03/29 01:42:59;;;;;;;22.43;16.83;;;7.80;99.90;;;;;;5017517;28;20107;-73
2022/03/29 01:45:30;;;;;;;21.87;15.80;;;7.80;99.90;;;;;;5033457;28;20349;-73
2022/03/29 01:47:56;;;;;;;26.33;16.13;;;7.90;99.90;;;;;;5034692;28;20284;-73
2022/03/29 01:50:22;;;;;;;21.20;16.17;;;7.80;99.90;;;;;;5034896;28;20338;-73
2022/03/29 01:52:48;;;;;;;22.60;16.97;;;7.90;99.90;;;;;;5033336;28;20709;-73
2022/03/29 01:55:19;;;;;;;26.73;18.33;;;7.90;99.90;;;;;;5034865;28;20360;-73
2022/03/29 01:57:46;;;;;;;24.40;17.00;;;7.90;99.90;;;;;;5034400;28;20080;-73
2022/03/29 02:00:31;;;;;;;21.75;16.60;;;7.80;99.90;;;;;;5033557;28;20276;-73
2022/03/29 02:02:59;;;;;;;24.00;16.98;;;7.80;99.90;;;;;;5033260;28;20045;-73
2022/03/29 02:05:25;;;;;;;24.70;17.70;;;7.80;99.90;;;;;;5033428;28;20136;-73
2022/03/29 02:07:51;;;;;;;26.53;18.17;;;7.70;99.90;;;;;;5034255;28;20284;-73
2022/03/29 02:10:21;;;;;;;23.87;17.07;;;7.70;99.90;;;;;;5034586;28;20280;-73
2022/03/29 02:12:49;;;;;;;24.43;16.93;;;7.70;99.90;;;;;;5034236;28;20084;-73
2022/03/29 02:15:15;;;;;;;26.70;16.87;;;7.70;99.90;;;;;;5034091;28;20299;-73
2022/03/29 02:17:43;;;;;;;25.02;16.65;;;7.80;99.90;;;;;;5033999;28;20295;-73
2022/03/29 02:20:09;;;;;;;25.77;17.27;;;7.70;99.90;;;;;;5034398;28;20049;-73
2022/03/29 02:22:35;;;;;;;24.30;17.80;;;7.70;99.90;;;;;;5034256;28;20284;-73
2022/03/29 02:25:01;;;;;;;25.10;17.60;;;7.70;99.90;;;;;;5034002;28;20276;-73
2022/03/29 02:27:27;;;;;;;24.20;17.27;;;7.70;99.90;;;;;;5033159;28;20045;-73
2022/03/29 02:29:53;;;;;;;23.47;17.30;;;7.70;99.90;;;;;;5033887;28;20084;-73
2022/03/29 02:32:19;;;;;;;25.70;17.00;;;7.70;99.90;;;;;;5034066;28;20280;-73
2022/03/29 02:34:47;;;;;;;22.70;15.47;;;7.70;99.90;;;;;;5033819;28;20624;-73
2022/03/29 02:37:13;;;;;;;24.83;15.97;;;7.70;99.90;;;;;;5034240;28;20366;-73
2022/03/29 02:39:40;;;;;;;24.20;15.03;;;7.70;99.90;;;;;;5033701;28;20291;-73
2022/03/29 02:42:07;;;;;;;26.73;16.87;;;7.60;99.90;;;;;;5016636;28;20049;-72
2022/03/29 02:44:33;;;;;;;22.27;16.90;;;7.60;99.90;;;;;;5033851;28;20292;-73
2022/03/29 02:46:59;;;;;;;26.77;15.97;;;7.60;99.90;;;;;;5033559;28;20381;-73
2022/03/29 02:49:25;;;;;;;23.87;15.77;;;7.60;99.90;;;;;;5032362;28;20284;-73
2022/03/29 02:51:51;;;;;;;23.50;17.00;;;7.50;99.90;;;;;;5033208;28;20635;-73
2022/03/29 02:54:19;;;;;;;22.95;15.68;;;7.60;99.90;;;;;;5033771;28;20363;-73
2022/03/29 02:56:45;;;;;;;23.80;16.07;;;7.60;99.90;;;;;;5033353;28;20103;-73
2022/03/29 02:59:11;;;;;;;23.37;17.23;;;7.60;99.90;;;;;;5033650;28;20653;-73
2022/03/29 03:01:37;;;;;;;22.57;17.33;;;7.60;99.90;;;;;;5032442;28;20287;-73
2022/03/29 03:04:03;;;;;;;25.90;16.77;;;7.60;99.90;;;;;;5032337;28;20284;-73
2022/03/29 03:06:29;;;;;;;21.53;15.27;;;7.60;99.90;;;;;;5033530;28;20049;-73
2022/03/29 03:08:54;;;;;;;23.57;16.00;;;7.60;99.90;;;;;;5033228;28;20128;-73
2022/03/29 03:11:20;;;;;;;27.73;16.47;;;7.60;99.90;;;;;;5033530;28;20389;-73
2022/03/29 03:13:46;;;;;;;22.47;16.13;;;7.60;99.90;;;;;;5033103;28;20128;-73
2022/03/29 03:16:13;;;;;;;24.97;16.27;;;7.60;99.90;;;;;;5033415;28;20057;-73
2022/03/29 03:18:39;;;;;;;26.67;16.10;;;7.50;99.90;;;;;;5032056;28;20387;-73
2022/03/29 03:21:04;;;;;;;24.25;15.82;;;7.50;99.90;;;;;;5032699;28;20280;-73
2022/03/29 03:23:30;;;;;;;23.03;15.50;;;7.50;99.90;;;;;;5033396;28;20046;-73
2022/03/29 03:25:56;;;;;;;24.60;16.43;;;7.50;99.90;;;;;;5032979;28;20148;-73
2022/03/29 03:28:22;;;;;;;26.97;16.50;;;7.50;99.90;;;;;;5033361;28;20060;-73
2022/03/29 03:30:48;;;;;;;24.40;16.93;;;7.50;99.90;;;;;;5032844;28;20437;-73
2022/03/29 03:33:13;;;;;;;23.23;16.03;;;7.50;99.90;;;;;;5033203;28;20552;-73
2022/03/29 03:35:39;;;;;;;23.40;17.07;;;7.50;99.90;;;;;;5032768;28;20401;-73
2022/03/29 03:38:07;;;;;;;27.63;17.43;;;7.40;99.90;;;;;;5032706;28;20132;-73
2022/03/29 03:40:33;;;;;;;24.60;16.95;;;7.50;99.90;;;;;;5033034;28;20049;-73
2022/03/29 03:43:00;;;;;;;26.27;18.00;;;7.50;99.90;;;;;;5032663;28;20053;-73
2022/03/29 03:45:26;;;;;;;26.90;17.43;;;7.40;99.90;;;;;;5032902;28;20059;-73
2022/03/29 03:47:52;;;;;;;26.17;16.70;;;7.40;99.90;;;;;;5031442;28;20370;-73
2022/03/29 03:50:17;;;;;;;25.03;17.23;;;7.50;99.90;;;;;;5031913;28;20049;-72
2022/03/29 03:52:43;;;;;;;27.07;17.07;;;7.40;99.90;;;;;;5031859;28;20049;-72
2022/03/29 03:55:09;;;;;;;26.90;17.77;;;7.40;99.90;;;;;;5032534;28;20041;-72
2022/03/29 03:57:34;;;;;;;26.70;17.80;;;7.40;99.90;;;;;;5031797;28;20045;-72
2022/03/29 04:00:01;;;;;;;28.93;17.63;;;7.40;99.90;;;;;;5031353;28;20093;-72
2022/03/29 04:02:27;;;;;;;26.17;18.65;;;7.30;99.90;;;;;;5033985;28;20041;-72
2022/03/29 04:04:53;;;;;;;26.37;17.47;;;7.30;99.90;;;;;;5035480;28;20076;-72
2022/03/29 04:07:19;;;;;;;26.30;17.63;;;7.30;99.90;;;;;;5036140;28;20354;-72
2022/03/29 04:09:45;;;;;;;31.65;18.38;;;7.30;99.90;;;;;;5036946;28;20049;-72
2022/03/29 04:12:11;;;;;;;28.37;18.50;;;7.30;99.90;;;;;;5036528;28;20052;-72
2022/03/29 04:14:36;;;;;;;33.20;17.92;;;7.30;99.90;;;;;;5036474;28;20128;-71
2022/03/29 04:17:04;;;;;;;30.77;18.67;;;7.30;99.90;;;;;;5035392;28;20136;-72
2022/03/29 04:19:29;;;;;;;31.97;18.57;;;7.30;99.90;;;;;;5036715;28;20080;-72
2022/03/29 04:21:55;;;;;;;33.33;19.43;;;7.30;99.90;;;;;;5018973;28;20795;-72
2022/03/29 04:24:21;;;;;;;30.03;18.50;;;7.40;99.90;;;;;;5036894;28;20095;-72
2022/03/29 04:26:48;;;;;;;27.57;17.50;;;7.30;99.90;;;;;;5035514;28;20477;-71
2022/03/29 04:29:14;;;;;;;26.23;19.08;;;7.30;99.90;;;;;;5036237;28;20049;-73
2022/03/29 04:31:40;;;;;;;28.93;18.17;;;7.30;99.90;;;;;;5035235;28;20041;-72
2022/03/29 04:34:06;;;;;;;24.48;17.80;;;7.30;99.90;;;;;;5035984;28;20337;-72
2022/03/29 04:36:32;;;;;;;31.23;20.03;;;7.30;99.90;;;;;;5036371;28;20482;-72
2022/03/29 04:38:57;;;;;;;29.33;18.57;;;7.40;99.90;;;;;;5034789;28;20144;-72
2022/03/29 04:41:24;;;;;;;29.43;18.77;;;7.40;99.90;;;;;;5035038;28;20111;-72
2022/03/29 04:43:50;;;;;;;29.02;18.83;;;7.40;99.90;;;;;;5035256;28;20122;-71
2022/03/29 04:46:17;;;;;;;33.03;20.27;;;7.40;99.90;;;;;;5035882;28;20130;-71
2022/03/29 04:48:43;;;;;;;31.00;19.30;;;7.30;99.90;;;;;;5035173;28;20056;-72
2022/03/29 04:51:09;;;;;;;27.93;19.00;;;7.30;99.90;;;;;;5034797;28;20100;-72
2022/03/29 04:53:34;;;;;;;28.23;19.50;;;7.40;99.90;;;;;;5018362;28;20292;-73
2022/03/29 04:56:00;;;;;;;30.67;19.83;;;7.30;99.90;;;;;;5035703;28;20045;-73
2022/03/29 04:58:26;;;;;;;29.27;18.93;;;7.30;99.90;;;;;;5035878;28;20041;-73
2022/03/29 05:00:52;;;;;;;37.77;20.57;;;7.30;99.90;;;;;;5018500;28;20053;-73
2022/03/29 05:03:18;;;;;;;37.13;20.33;;;7.30;99.90;;;;;;5035586;28;20053;-73
2022/03/29 05:05:44;;;;;;;34.07;20.60;;;7.30;99.90;;;;;;5035832;28;20389;-73
2022/03/29 05:08:09;;;;;;;31.10;19.93;;;7.30;99.90;;;;;;5035410;28;20049;-73
2022/03/29 05:10:35;;;;;;;29.27;20.50;;;7.40;99.90;;;;;;5035381;28;20609;-72
2022/03/29 05:13:01;;;;;;;33.67;20.60;;;7.30;99.90;;;;;;5035339;28;20128;-73
2022/03/29 05:15:27;;;;;;;31.77;21.97;;;7.40;99.90;;;;;;5017896;28;20433;-72
2022/03/29 05:17:53;;;;;;;33.00;21.10;;;7.40;99.90;;;;;;5035503;28;20096;-73
2022/03/29 05:20:19;;;;;;;30.83;19.77;;;7.40;99.90;;;;;;5035280;28;20053;-72
2022/03/29 05:22:47;;;;;;;32.83;20.75;;;7.40;99.90;;;;;;5035448;28;20045;-73
2022/03/29 05:25:14;;;;;;;33.37;20.07;;;7.40;99.90;;;;;;5035170;28;20104;-73
2022/03/29 05:27:40;;;;;;;32.20;21.80;;;7.40;99.90;;;;;;5034466;28;20362;-72
2022/03/29 05:30:07;;;;;;;33.67;20.70;;;7.40;99.90;;;;;;5034157;28;20057;-73
2022/03/29 05:32:33;;;;;;;35.67;22.40;;;7.40;99.90;;;;;;5035265;28;20287;-73
2022/03/29 05:34:59;;;;;;;38.20;22.05;;;7.40;99.90;;;;;;5034912;28;20756;-73
2022/03/29 05:37:24;;;;;;;37.27;22.10;;;7.40;99.90;;;;;;5035191;28;20095;-73
2022/03/29 05:39:50;;;;;;;35.23;21.00;;;7.40;99.90;;;;;;5035199;28;20046;-73
2022/03/29 05:42:16;;;;;;;31.33;20.57;;;7.40;99.90;;;;;;5034844;28;20136;-73
2022/03/29 05:44:43;;;;;;;34.97;21.80;;;7.40;99.90;;;;;;5035078;28;20409;-73
2022/03/29 05:50:04;;;;;;;31.42;22.05;;;7.40;99.90;;;;;;5002729;28;20042;-73
2022/03/29 05:52:30;;;;;;;36.38;22.85;;;7.50;99.90;;;;;;5035319;28;20398;-73
2022/03/29 05:54:57;;;;;;;37.43;21.87;;;7.40;99.90;;;;;;5035022;28;20045;-73
2022/03/29 05:57:23;;;;;;;35.30;21.27;;;7.50;99.90;;;;;;5033490;28;20052;-73
2022/03/29 05:59:49;;;;;;;33.45;20.38;;;7.50;99.90;;;;;;5033642;28;20077;-73
2022/03/29 06:02:15;;;;;;;33.60;21.83;;;7.50;99.90;;;;;;5033074;28;20524;-73
2022/03/29 06:04:41;;;;;;;33.87;21.33;;;7.50;99.90;;;;;;5033798;28;20135;-72
2022/03/29 06:07:07;;;;;;;31.57;21.83;;;7.50;99.90;;;;;;5033404;28;20045;-73
2022/03/29 06:09:34;;;;;;;37.67;20.83;;;7.60;99.90;;;;;;5034790;28;20108;-73
2022/03/29 06:12:01;;;;;;;33.60;22.15;;;7.50;99.90;;;;;;5034658;28;20111;-73
2022/03/29 06:14:27;;;;;;;40.07;22.87;;;7.50;99.90;;;;;;5034673;28;20077;-72
2022/03/29 06:16:55;;;;;;;35.57;22.23;;;7.50;99.90;;;;;;5034404;28;20316;-73
2022/03/29 06:19:21;;;;;;;39.13;22.75;;;7.50;99.90;;;;;;5034147;28;20128;-73
2022/03/29 06:21:47;;;;;;;40.23;22.13;;;7.50;99.90;;;;;;5034392;28;20553;-73
2022/03/29 06:24:13;;;;;;;36.37;22.57;;;7.50;99.90;;;;;;5033540;28;20273;-73
2022/03/29 06:26:39;;;;;;;39.10;22.75;;;7.50;99.90;;;;;;5034316;28;20041;-73
2022/03/29 06:29:11;;;;;;;33.70;22.00;;;7.50;99.90;;;;;;5033997;28;20045;-73
2022/03/29 06:31:38;;;;;;;33.40;22.10;;;7.50;99.90;;;;;;5033119;28;20431;-73
2022/03/29 06:34:05;;;;;;;46.20;22.83;;;7.50;99.90;;;;;;5032853;28;20053;-73
2022/03/29 06:36:31;;;;;;;40.22;23.85;;;7.60;99.90;;;;;;5016459;28;20049;-73
2022/03/29 06:38:56;;;;;;;34.92;22.52;;;7.60;99.90;;;;;;5034074;28;20048;-73
2022/03/29 06:41:22;;;;;;;33.53;21.53;;;7.60;99.90;;;;;;5032560;28;20053;-73
2022/03/29 06:43:48;;;;;;;38.07;23.93;;;7.70;99.90;;;;;;5033959;28;20057;-72
2022/03/29 06:46:16;;;;;;;30.23;20.47;;;7.60;99.90;;;;;;5032699;28;20052;-73
2022/03/29 06:48:42;;;;;;;38.20;21.10;;;7.60;99.90;;;;;;5033843;28;20048;-72
2022/03/29 06:51:09;;;;;;;39.08;23.45;;;7.60;99.90;;;;;;5032370;28;20280;-73
2022/03/29 06:53:39;;;;;;;34.75;21.23;;;7.70;99.90;;;;;;5033725;28;20424;-72
2022/03/29 06:56:08;;;;;;;31.73;21.02;;;7.70;99.90;;;;;;5033800;28;20135;-73
2022/03/29 06:58:35;;;;;;;39.42;22.88;;;7.60;99.90;;;;;;5032727;28;20084;-73
2022/03/29 07:01:00;;;;;;;36.55;22.00;;;7.60;99.90;;;;;;5033704;28;20067;-72
2022/03/29 07:03:27;;;;;;;33.60;21.50;;;7.70;99.90;;;;;;5032361;28;20891;-73
2022/03/29 07:05:53;;;;;;;36.78;23.08;;;7.70;99.90;;;;;;5033314;28;20489;-73
2022/03/29 07:08:20;;;;;;;34.37;23.30;;;7.80;99.90;;;;;;5033292;28;20497;-73
2022/03/29 07:13:30;;;;;;;41.43;23.90;;;7.80;99.90;;;;;;5033167;28;20045;-73
2022/03/29 07:15:56;;;;;;;35.03;22.50;;;7.80;99.90;;;;;;5033374;28;20681;-73
2022/03/29 07:18:22;;;;;;;36.30;21.97;;;7.80;99.90;;;;;;5031902;28;20049;-73
2022/03/29 07:20:48;;;;;;;32.43;20.43;;;7.90;99.90;;;;;;5032369;28;20395;-73
2022/03/29 07:23:14;;;;;;;39.00;22.23;;;7.90;99.90;;;;;;5031811;28;20045;-73
2022/03/29 07:25:40;;;;;;;33.97;21.60;;;7.90;99.90;;;;;;5033248;28;20056;-73
2022/03/29 07:28:11;;;;;;;38.60;23.60;;;7.90;99.90;;;;;;5033169;28;20038;-75
2022/03/29 07:30:40;;;;;;;32.03;22.45;;;8.00;99.90;;;;;;5033592;28;20397;-81
2022/03/29 07:33:06;;;;;;;30.77;21.25;;;8.00;99.90;;;;;;5032140;28;20217;-74
2022/03/29 07:35:33;;;;;;;38.60;22.67;;;8.00;99.90;;;;;;5032457;28;20045;-74
2022/03/29 07:37:59;;;;;;;37.60;21.87;;;8.00;99.90;;;;;;5032514;28;20288;-74
2022/03/29 07:40:27;;;;;;;35.43;21.90;;;8.00;99.90;;;;;;5031613;28;20287;-74
2022/03/29 07:42:54;;;;;;;35.20;21.67;;;8.00;99.90;;;;;;5032998;28;20520;-75
2022/03/29 07:45:21;;;;;;;32.83;21.33;;;8.00;99.90;;;;;;5031764;28;20292;-75
2022/03/29 07:47:49;;;;;;;35.03;21.97;;;8.00;99.90;;;;;;5033137;28;20363;-75
2022/03/29 07:50:15;;;;;;;34.20;20.33;;;8.00;99.90;;;;;;5015460;28;20330;-74
2022/03/29 07:52:42;;;;;;;34.70;21.37;;;8.10;99.90;;;;;;5034505;28;20276;-75
2022/03/29 07:55:10;;;;;;;33.23;20.70;;;8.00;99.90;;;;;;5031853;28;20053;-75
2022/03/29 07:57:37;;;;;;;30.57;19.93;;;8.10;99.90;;;;;;5032554;28;20296;-74
2022/03/29 08:00:31;;;;;;;36.33;21.13;;;8.10;99.90;;;;;;5033074;28;20280;-75
2022/03/29 08:02:52;;;;;;;35.60;21.03;;;8.10;99.90;;;;;;5031938;28;20686;-75
2022/03/29 08:05:19;;;;;;;27.27;19.83;;;8.10;99.90;;;;;;5032510;28;20287;-73
2022/03/29 08:07:45;;;;;;;33.47;21.00;;;8.10;99.90;;;;;;5015409;28;20272;-74
2022/03/29 08:10:12;;;;;;;38.13;22.83;;;8.10;99.90;;;;;;5015166;28;20382;-74
2022/03/29 08:12:41;;;;;;;36.13;20.50;;;8.20;99.90;;;;;;5032406;28;20636;-74
2022/03/29 08:15:10;;;;;;;39.10;21.02;;;8.30;99.90;;;;;;5032778;28;20790;-76
2022/03/29 08:17:36;;;;;;;32.30;21.23;;;8.20;99.90;;;;;;5032420;28;20053;-75
2022/03/29 08:20:06;;;;;;;40.13;20.67;;;8.30;99.90;;;;;;5032753;28;20288;-75
2022/03/29 08:22:33;;;;;;;35.53;20.40;;;8.40;99.90;;;;;;5031519;28;20629;-75
2022/03/29 08:25:00;;;;;;;35.03;21.13;;;8.50;99.90;;;;;;5032659;28;20598;-76
2022/03/29 08:27:26;;;;;;;33.20;20.20;;;8.50;99.90;;;;;;5032458;28;20375;-74
2022/03/29 08:29:52;;;;;;;31.10;19.57;;;8.60;99.90;;;;;;5031272;28;20378;-76
2022/03/29 08:32:18;;;;;;;34.27;19.77;;;8.70;99.90;;;;;;5032409;28;20049;-77
2022/03/29 08:34:44;;;;;;;33.17;19.47;;;8.70;99.90;;;;;;5015211;28;20284;-75
2022/03/29 08:37:10;;;;;;;36.33;20.57;;;8.80;99.90;;;;;;5032379;28;20107;-78
2022/03/29 08:39:36;;;;;;;35.60;20.30;;;9.00;99.90;;;;;;5026357;28;20045;-74
2022/03/29 08:42:16;;;;;;;40.93;20.90;;;8.90;99.90;;;;;;5031257;28;20072;-83
2022/03/29 08:44:43;;;;;;;34.70;19.77;;;8.90;99.90;;;;;;5031980;28;20516;-75
2022/03/29 08:47:09;;;;;;;30.00;19.53;;;8.90;99.90;;;;;;5032516;28;20363;-75
2022/03/29 08:49:36;;;;;;;41.80;21.40;;;8.80;99.90;;;;;;5035827;28;20291;-75
2022/03/29 08:52:04;;;;;;;35.20;21.20;;;8.80;99.90;;;;;;5036063;28;20752;-75
2022/03/29 08:54:32;;;;;;;32.57;20.10;;;8.80;99.90;;;;;;5035861;28;20303;-75
2022/03/29 08:56:58;;;;;;;36.27;19.67;;;8.80;99.90;;;;;;5035986;28;20280;-75
2022/03/29 08:59:26;;;;;;;33.23;19.17;;;8.80;99.90;;;;;;5035637;28;20363;-75
2022/03/29 09:01:53;;;;;;;38.13;20.50;;;8.80;99.90;;;;;;5035897;28;20313;-75
2022/03/29 09:04:24;;;;;;;39.97;20.70;;;8.90;99.90;;;;;;5035566;28;20760;-75
2022/03/29 09:06:58;;;;;;;39.63;19.97;;;8.90;99.90;;;;;;5035767;28;20276;-75
2022/03/29 09:09:32;;;;;;;30.77;19.98;;;8.90;99.90;;;;;;5035626;28;20284;-75
2022/03/29 09:12:08;;;;;;;31.50;20.10;;;8.90;99.90;;;;;;5035702;28;20175;-77
2022/03/29 09:14:50;;;;;;;34.60;19.57;;;8.90;99.90;;;;;;5035244;28;20273;-74
2022/03/29 09:17:34;;;;;;;35.70;22.13;;;9.00;99.90;;;;;;5035737;28;20296;-75
2022/03/29 09:20:07;;;;;;;38.90;20.63;;;9.00;99.90;;;;;;5035749;28;20284;-75
2022/03/29 09:22:50;;;;;;;36.63;21.57;;;8.90;99.90;;;;;;5034169;28;20768;-75
2022/03/29 09:25:24;;;;;;;34.77;20.23;;;9.00;99.90;;;;;;5018339;28;20292;-76
2022/03/29 09:27:59;;;;;;;39.27;20.33;;;9.20;99.90;;;;;;5036792;28;20279;-76
2022/03/29 09:30:38;;;;;;;33.27;21.43;;;9.30;99.90;;;;;;5040541;28;20314;-76
2022/03/29 09:33:33;;;;;;;37.03;22.13;;;9.50;99.90;;;;;;5031386;28;20284;-75
2022/03/29 09:36:02;;;;;;;34.00;20.17;;;9.70;99.90;;;;;;5044581;28;20300;-76
2022/03/29 09:38:32;;;;;;;34.93;19.80;;;9.80;99.90;;;;;;5048036;28;20765;-76
2022/03/29 09:40:59;;;;;;;28.33;19.77;;;9.90;99.90;;;;;;5029935;28;20288;-76
2022/03/29 09:43:27;;;;;;;39.13;18.83;;;10.00;99.90;;;;;;5033761;28;20772;-76
2022/03/29 09:45:59;;;;;;;38.90;19.60;;;10.10;99.90;;;;;;5032788;28;20324;-76
2022/03/29 09:48:36;;;;;;;31.27;18.13;;;10.30;99.90;;;;;;5033991;28;20269;-76
2022/03/29 09:51:07;;;;;;;29.60;19.87;;;10.30;99.90;;;;;;5032648;28;20337;-76
2022/03/29 09:53:43;;;;;;;33.13;19.53;;;;;;;;;;5033798;28;20296;-76
2022/03/29 09:56:11;;;;;;;36.27;18.20;;;10.50;99.90;;;;;;5036577;28;20291;-76
2022/03/29 09:58:38;;;;;;;29.23;18.37;;;10.70;99.90;;;;;;5033485;28;20300;-76
2022/03/29 10:01:05;;;;;;;31.77;19.00;;;10.80;99.90;;;;;;5030645;28;20299;-76
2022/03/29 10:03:35;;;;;;;33.80;19.00;;;10.90;99.90;;;;;;5033659;28;20363;-76
2022/03/29 10:06:05;;;;;;;30.80;18.23;;;10.90;99.90;;;;;;5016030;28;20288;-75
2022/03/29 10:11:22;;;;;;;31.87;17.70;;;10.80;99.90;;;;;;5034079;28;20760;-76
2022/03/29 10:13:48;;;;;;;31.30;17.30;;;10.80;99.90;;;;;;5033013;28;20415;-76
2022/03/29 10:16:16;;;;;;;32.87;19.10;;;10.70;99.90;;;;;;5034694;28;20755;-76
2022/03/29 10:18:46;;;;;;;31.63;17.93;;;10.60;99.90;;;;;;5034103;28;20299;-76
2022/03/29 10:21:15;;;;;;;28.70;17.60;;;10.60;99.90;;;;;;5034630;28;20305;-75
2022/03/29 10:23:46;;;;;;;32.87;17.00;;;10.60;99.90;;;;;;5000353;28;20288;-75
2022/03/29 10:26:16;;;;;;;26.50;15.50;;;10.70;99.90;;;;;;5034674;28;20350;-76
2022/03/29 10:28:44;;;;;;;30.30;14.50;;;10.60;99.90;;;;;;5034138;28;20604;-76
2022/03/29 10:31:48;;;;;;;27.00;14.37;;;10.60;99.90;;;;;;5034188;28;20280;-76
2022/03/29 10:34:27;;;;;;;24.23;13.20;;;10.60;99.90;;;;;;5019230;28;20292;-76
2022/03/29 10:37:00;;;;;;;29.63;14.30;;;10.60;99.90;;;;;;5012960;28;20293;-76
2022/03/29 10:39:47;;;;;;;31.17;14.00;;;10.70;99.90;;;;;;5013142;28;20281;-76
2022/03/29 10:42:37;;;;;;;26.97;12.83;;;10.80;99.90;;;;;;5014232;28;20280;-76
2022/03/29 10:45:27;;;;;;;25.33;12.10;;;10.80;99.90;;;;;;5014467;28;20293;-75
2022/03/29 10:48:09;;;;;;;29.77;10.87;;;10.80;99.90;;;;;;5012732;28;20269;-76
2022/03/29 10:50:57;;;;;;;23.83;10.10;;;10.70;99.90;;;;;;5013912;28;20277;-75
2022/03/29 10:53:27;;;;;;;29.30;10.67;;;10.80;99.90;;;;;;4996760;28;20297;-76
2022/03/29 10:56:11;;;;;;;32.87;11.00;;;10.80;99.90;;;;;;5012660;28;20319;-76
2022/03/29 10:59:00;;;;;;;22.23;10.68;;;10.80;99.90;;;;;;5013316;28;20313;-81
2022/03/29 11:01:26;;;;;;;24.30;10.87;;;10.90;99.90;;;;;;5037380;28;20437;-79
2022/03/29 11:04:13;;;;;;;26.23;11.40;;;11.00;99.90;;;;;;5040808;28;20284;-78
2022/03/29 11:06:59;;;;;;;32.63;11.47;;;;;;;;;;5041382;28;20280;-77
2022/03/29 11:09:25;;;;;;;26.07;11.33;;;11.30;99.90;;;;;;5039711;28;20300;-75
2022/03/29 11:11:51;;;;;;;27.17;10.43;;;11.40;99.90;;;;;;5032609;28;20349;-75
2022/03/29 11:14:29;;;;;;;27.17;9.67;;;11.40;99.90;;;;;;5037974;28;20391;-80
2022/03/29 11:17:16;;;;;;;28.40;11.13;;;11.50;99.90;;;;;;5011913;28;20062;-77
2022/03/29 11:19:53;;;;;;;25.47;10.33;;;11.40;98.90;;;;;;5013038;28;20394;-76
2022/03/29 11:22:22;;;;;;;25.83;11.03;;;11.40;99.70;;;;;;5012814;28;20296;-76
2022/03/29 11:24:52;;;;;;;26.17;11.20;;;11.30;99.90;;;;;;5029376;28;20303;-74
2022/03/29 11:27:31;;;;;;;30.57;11.67;;;11.40;99.90;;;;;;5032924;28;20629;-76
2022/03/29 11:29:57;;;;;;;26.93;10.30;;;11.40;99.90;;;;;;5031536;28;20284;-75
2022/03/29 11:32:23;;;;;;;25.00;9.73;;;11.40;97.40;;;;;;5031971;28;20410;-75
2022/03/29 11:34:57;;;;;;;25.30;10.60;;;11.50;96.20;;;;;;5032890;28;20284;-75
2022/03/29 11:37:27;;;;;;;26.60;10.53;;;11.60;95.30;;;;;;5033197;28;20371;-74
2022/03/29 11:39:53;;;;;;;30.10;10.77;;;11.60;94.70;;;;;;5032799;28;20288;-76
2022/03/29 11:42:19;;;;;;;26.87;10.57;;;11.50;96.00;;;;;;5032448;28;20295;-74
2022/03/29 11:44:50;;;;;;;22.73;10.60;;;11.60;96.40;;;;;;5032818;28;20276;-75
2022/03/29 11:47:16;;;;;;;25.37;10.83;;;11.70;96.30;;;;;;5033151;28;20283;-75
2022/03/29 11:49:42;;;;;;;27.13;10.87;;;11.70;95.40;;;;;;5032682;28;20720;-76
2022/03/29 11:52:12;;;;;;;27.27;10.77;;;11.70;94.70;;;;;;5032409;28;20299;-77
2022/03/29 11:54:51;;;;;;;24.57;11.00;;;11.60;94.90;;;;;;5013445;28;20289;-77
2022/03/29 11:57:25;;;;;;;27.37;11.63;;;11.70;95.60;;;;;;5013987;28;20288;-86
2022/03/29 11:59:52;;;;;;;26.67;9.37;;;11.60;95.10;;;;;;5013623;28;20352;-77
2022/03/29 12:02:18;;;;;;;26.23;11.37;;;11.70;96.00;;;;;;5013165;28;20371;-84
2022/03/29 12:04:48;;;;;;;25.10;9.80;;;12.00;99.90;;;;;;4979388;28;20340;-76
2022/03/29 12:07:14;;;;;;;26.23;11.40;;;12.10;99.90;;;;;;5013056;28;20050;-77
2022/03/29 12:09:46;;;;;;;27.00;10.17;;;12.10;99.90;;;;;;5012998;28;20368;-75
2022/03/29 12:12:13;;;;;;;25.20;10.40;;;12.10;98.10;;;;;;5013264;28;20288;-82
2022/03/29 12:14:39;;;;;;;23.43;9.37;;;12.10;95.80;;;;;;5012953;28;20376;-82
2022/03/29 12:17:07;;;;;;;23.37;9.77;;;12.10;96.00;;;;;;5012644;28;20392;-83
2022/03/29 12:19:35;;;;;;;21.67;9.50;;;11.90;95.50;;;;;;5012935;28;20125;-82
2022/03/29 12:22:04;;;;;;;25.07;9.17;;;11.90;95.50;;;;;;5012697;28;20739;-81
2022/03/29 12:24:42;;;;;;;24.97;10.10;;;11.80;95.80;;;;;;5016890;28;20372;-82
2022/03/29 12:27:15;;;;;;;23.93;10.07;;;;;;;;;;5016847;28;20277;-81
2022/03/29 12:29:48;;;;;;;26.23;9.93;;;11.70;92.40;;;;;;5015819;28;20292;-82
2022/03/29 12:32:15;;;;;;;26.40;10.50;;;11.60;93.40;;;;;;5017223;28;20289;-80
2022/03/29 12:34:42;;;;;;;25.40;9.37;;;11.50;93.50;;;;;;5015708;28;20343;-84
2022/03/29 12:37:16;;;;;;;26.13;9.20;;;11.50;93.50;;;;;;5015415;28;20588;-82
2022/03/29 12:39:45;;;;;;;26.80;9.47;;;11.50;93.90;;;;;;5016820;28;20331;-86
2022/03/29 12:42:14;;;;;;;22.17;9.17;;;11.40;94.50;;;;;;5015671;28;20331;-84
2022/03/29 12:44:47;;;;;;;28.17;10.47;;;11.40;94.70;;;;;;5016542;28;20287;-84
2022/03/29 12:47:15;;;;;;;24.73;9.30;;;11.40;94.50;;;;;;5016681;28;20334;-81
2022/03/29 12:49:42;;;;;;;22.63;9.70;;;11.30;94.50;;;;;;5015396;28;20313;-85
2022/03/29 12:52:11;;;;;;;27.10;10.67;;;11.30;94.50;;;;;;5031502;28;20360;-86